Time;durP1;ratioP1;P1;durP2;ratioP2;P2;SDS_P1;SDS_P2;PMS_P1;PMS_P2;Temp;Humidity;BMP_temperature;BMP_pressure;BME280_temperature;BME280_humidity;BME280_pressure;Samples;Min_cycle;Max_cycle;Signal;HPM_P1;HPM_P2
2021/03/24 00:01:25;;;;;;;16.45;3.83;;;8.10;99.90;;;;;;5020288;28;20391;-83
2021/03/24 00:03:52;;;;;;;13.18;3.10;;;8.10;99.90;;;;;;5053055;28;20062;-83
2021/03/24 00:06:19;;;;;;;18.23;3.05;;;8.10;99.90;;;;;;5070910;28;20114;-85
2021/03/24 00:08:44;;;;;;;14.57;2.80;;;8.10;99.90;;;;;;5053121;28;20397;-85
2021/03/24 00:11:13;;;;;;;12.10;3.35;;;8.10;99.90;;;;;;5052983;28;20035;-85
2021/03/24 00:13:39;;;;;;;12.00;3.20;;;8.00;99.90;;;;;;5053176;28;20390;-85
2021/03/24 00:16:05;;;;;;;20.83;3.33;;;8.00;99.90;;;;;;5036385;28;20124;-84
2021/03/24 00:18:32;;;;;;;13.70;3.22;;;8.00;99.90;;;;;;5036328;28;20513;-83
2021/03/24 00:20:58;;;;;;;14.77;2.90;;;7.90;99.90;;;;;;5036300;28;20040;-83
2021/03/24 00:23:24;;;;;;;18.98;3.75;;;7.90;99.90;;;;;;5052560;28;20025;-84
2021/03/24 00:25:49;;;;;;;15.23;2.88;;;7.80;99.90;;;;;;5052528;28;20032;-86
2021/03/24 00:28:16;;;;;;;11.63;2.28;;;7.80;99.90;;;;;;5052670;28;20020;-85
2021/03/24 00:30:46;;;;;;;14.32;2.95;;;7.80;99.90;;;;;;5052584;28;20365;-84
2021/03/24 00:33:14;;;;;;;24.50;3.58;;;7.70;99.90;;;;;;5052565;28;20119;-82
2021/03/24 00:35:40;;;;;;;23.02;3.35;;;7.70;99.90;;;;;;5052793;28;20094;-84
2021/03/24 00:38:06;;;;;;;13.98;2.28;;;7.70;99.90;;;;;;5035909;28;20123;-83
2021/03/24 00:40:39;;;;;;;10.98;2.70;;;7.70;99.90;;;;;;5051121;28;20132;-84
2021/03/24 00:43:05;;;;;;;21.02;3.45;;;7.70;99.90;;;;;;5052518;28;20020;-86
2021/03/24 00:45:35;;;;;;;12.15;3.10;;;7.60;99.90;;;;;;5036203;28;20036;-83
2021/03/24 00:48:02;;;;;;;14.73;2.58;;;7.60;99.90;;;;;;5052002;28;20056;-86
2021/03/24 00:50:30;;;;;;;11.38;2.08;;;7.60;99.90;;;;;;5052517;28;20127;-85
2021/03/24 00:52:56;;;;;;;15.43;3.08;;;7.60;99.90;;;;;;5052080;28;20029;-82
2021/03/24 00:55:22;;;;;;;23.23;3.75;;;7.50;99.90;;;;;;5019231;28;20361;-85
2021/03/24 00:57:48;;;;;;;9.27;2.70;;;7.50;99.90;;;;;;5035595;28;20132;-85
2021/03/24 01:00:16;;;;;;;10.25;2.50;;;7.50;99.90;;;;;;5035638;28;20120;-83
2021/03/24 01:02:42;;;;;;;19.25;3.42;;;7.50;99.90;;;;;;5051875;28;20027;-84
2021/03/24 01:05:10;;;;;;;18.88;2.95;;;7.50;99.90;;;;;;5035278;28;20036;-85
2021/03/24 01:07:36;;;;;;;10.77;2.78;;;7.50;99.90;;;;;;5052160;28;20051;-85
2021/03/24 01:10:07;;;;;;;16.77;3.38;;;7.50;99.90;;;;;;5069796;28;20052;-82
2021/03/24 01:12:33;;;;;;;20.08;3.22;;;7.40;99.90;;;;;;5051747;28;20016;-84
2021/03/24 01:14:59;;;;;;;19.63;2.92;;;7.40;99.90;;;;;;5035343;28;20509;-85
2021/03/24 01:17:24;;;;;;;16.63;2.97;;;7.40;99.90;;;;;;5018686;28;20387;-85
2021/03/24 01:19:50;;;;;;;10.60;2.13;;;7.40;99.90;;;;;;5018601;28;20190;-84
2021/03/24 01:22:16;;;;;;;14.25;2.92;;;7.40;99.90;;;;;;5018505;28;20040;-83
2021/03/24 01:24:41;;;;;;;20.83;2.85;;;7.40;99.90;;;;;;5035048;28;20063;-83
2021/03/24 01:27:07;;;;;;;14.95;3.88;;;7.40;99.90;;;;;;5035170;28;20491;-83
2021/03/24 01:29:33;;;;;;;20.77;3.35;;;7.40;99.90;;;;;;5069441;28;20027;-83
2021/03/24 01:31:59;;;;;;;17.27;2.63;;;7.40;99.90;;;;;;5051512;28;20032;-84
2021/03/24 01:34:24;;;;;;;18.05;2.58;;;7.40;99.90;;;;;;5051329;28;20025;-82
2021/03/24 01:36:50;;;;;;;24.77;4.15;;;7.40;99.90;;;;;;5051663;28;20036;-87
2021/03/24 01:39:16;;;;;;;18.95;3.08;;;7.40;99.90;;;;;;5018227;28;20109;-84
2021/03/24 01:41:41;;;;;;;12.50;1.90;;;7.50;99.90;;;;;;5051155;28;20036;-84
2021/03/24 01:44:07;;;;;;;22.00;4.20;;;7.50;99.90;;;;;;5034915;28;20053;-85
2021/03/24 01:46:40;;;;;;;14.93;2.60;;;7.50;99.90;;;;;;5017930;28;20028;-83
2021/03/24 01:49:12;;;;;;;12.20;2.75;;;7.50;99.90;;;;;;5050977;28;20127;-84
2021/03/24 01:51:45;;;;;;;11.27;2.75;;;7.50;99.90;;;;;;5050864;28;20282;-84
2021/03/24 01:54:15;;;;;;;23.08;2.60;;;7.50;99.90;;;;;;5051173;28;20510;-84
2021/03/24 01:56:44;;;;;;;20.80;3.15;;;7.50;99.90;;;;;;5050968;28;20032;-85
2021/03/24 01:59:11;;;;;;;25.60;3.13;;;7.50;99.90;;;;;;5068745;28;20364;-85
2021/03/24 02:01:37;;;;;;;24.70;3.30;;;7.50;99.90;;;;;;5068807;28;20036;-87
2021/03/24 02:04:03;;;;;;;17.58;3.40;;;7.40;99.90;;;;;;5051008;28;20040;-87
2021/03/24 02:06:47;;;;;;;19.52;2.70;;;7.40;99.90;;;;;;5068794;28;20107;-83
2021/03/24 02:09:38;;;;;;;19.48;3.35;;;7.40;99.90;;;;;;5068618;28;20051;-84
2021/03/24 02:12:33;;;;;;;24.00;3.70;;;7.40;99.90;;;;;;5068759;28;20030;-83
2021/03/24 02:15:09;;;;;;;16.83;3.13;;;7.40;99.90;;;;;;5050665;28;20374;-87
2021/03/24 02:17:39;;;;;;;14.00;2.63;;;7.40;99.90;;;;;;5068504;28;20119;-83
2021/03/24 02:20:18;;;;;;;20.20;2.90;;;7.30;99.90;;;;;;5050400;28;20017;-83
2021/03/24 02:22:56;;;;;;;18.60;2.97;;;7.30;99.90;;;;;;5068837;28;20099;-86
2021/03/24 02:25:55;;;;;;;12.43;2.95;;;7.30;99.90;;;;;;5068408;28;20027;-85
2021/03/24 02:28:22;;;;;;;16.88;2.80;;;7.30;99.90;;;;;;5019821;28;20387;-83
2021/03/24 02:30:49;;;;;;;20.08;2.92;;;7.30;99.90;;;;;;5068233;28;20463;-82
2021/03/24 02:33:21;;;;;;;17.35;2.53;;;7.30;99.90;;;;;;5033770;28;20264;-84
2021/03/24 02:35:53;;;;;;;12.27;2.33;;;7.30;99.90;;;;;;5050742;28;20123;-81
2021/03/24 02:38:22;;;;;;;16.55;3.60;;;7.30;99.90;;;;;;5050142;28;20437;-82
2021/03/24 02:40:49;;;;;;;16.52;2.83;;;7.30;99.90;;;;;;5033722;28;20039;-83
2021/03/24 02:43:16;;;;;;;20.52;3.78;;;7.40;99.90;;;;;;5050225;28;20032;-85
2021/03/24 02:45:44;;;;;;;9.95;2.30;;;7.40;99.90;;;;;;5033772;28;20028;-85
2021/03/24 02:48:14;;;;;;;18.13;2.35;;;7.50;99.90;;;;;;5049905;28;20106;-83
2021/03/24 02:50:43;;;;;;;16.90;2.58;;;7.70;99.90;;;;;;5068034;28;20025;-85
2021/03/24 02:53:10;;;;;;;14.80;2.50;;;7.80;99.90;;;;;;5068087;28;20095;-85
2021/03/24 02:55:39;;;;;;;25.10;3.28;;;7.90;99.90;;;;;;5050139;28;20032;-83
2021/03/24 02:58:05;;;;;;;13.32;1.70;;;7.90;99.90;;;;;;5050202;28;20028;-84
2021/03/24 03:00:31;;;;;;;22.08;2.75;;;8.00;99.90;;;;;;5049985;28;20040;-83
2021/03/24 03:03:09;;;;;;;11.52;2.28;;;8.10;99.80;;;;;;5032732;28;20119;-85
2021/03/24 03:05:37;;;;;;;20.00;2.53;;;8.20;99.70;;;;;;5049962;28;20028;-85
2021/03/24 03:08:09;;;;;;;16.67;2.45;;;8.20;99.40;;;;;;5050162;28;20040;-85
2021/03/24 03:11:00;;;;;;;11.80;2.65;;;8.10;99.40;;;;;;5067846;28;20044;-88
2021/03/24 03:13:52;;;;;;;11.27;2.03;;;8.10;99.50;;;;;;5067870;28;20032;-82
2021/03/24 03:16:46;;;;;;;14.27;3.15;;;8.10;99.50;;;;;;5067888;28;20044;-85
2021/03/24 03:19:17;;;;;;;13.13;2.30;;;8.10;99.50;;;;;;5055167;28;20032;-82
2021/03/24 03:21:53;;;;;;;10.98;2.70;;;8.10;99.30;;;;;;5049726;28;20069;-84
2021/03/24 03:24:22;;;;;;;15.23;2.35;;;8.00;99.30;;;;;;5067714;28;20032;-85
2021/03/24 03:26:50;;;;;;;22.83;2.38;;;7.90;99.00;;;;;;5067613;28;20024;-84
2021/03/24 03:29:19;;;;;;;11.57;2.28;;;7.80;99.10;;;;;;5049711;28;20033;-85
2021/03/24 03:31:49;;;;;;;11.70;2.08;;;7.70;99.10;;;;;;5067598;28;20044;-87
2021/03/24 03:34:17;;;;;;;;;;;7.60;99.20;;;;;;5050174;28;20029;-87
2021/03/24 03:36:46;;;;;;;10.52;2.40;;;7.60;99.30;;;;;;5049705;28;19908;-83
2021/03/24 03:39:14;;;;;;;;;;;7.60;99.30;;;;;;5067926;28;20493;-86
2021/03/24 03:41:40;;;;;;;10.48;2.17;;;7.60;99.30;;;;;;5049871;28;19927;-85
2021/03/24 03:44:07;;;;;;;10.68;2.88;;;7.60;99.10;;;;;;5049787;28;20538;-82
2021/03/24 03:46:38;;;;;;;14.80;3.15;;;7.50;99.00;;;;;;5067441;28;20039;-87
2021/03/24 03:49:04;;;;;;;12.80;1.92;;;7.40;99.00;;;;;;5049562;28;20045;-85
2021/03/24 03:51:45;;;;;;;18.40;2.28;;;7.40;99.10;;;;;;5049776;28;20379;-84
2021/03/24 03:54:37;;;;;;;14.80;2.47;;;7.30;99.10;;;;;;5049791;28;20031;-84
2021/03/24 03:57:18;;;;;;;13.05;1.80;;;7.30;99.20;;;;;;5067501;28;20074;-83
2021/03/24 03:59:56;;;;;;;16.75;2.13;;;7.30;99.10;;;;;;5049555;28;20023;-83
2021/03/24 04:02:29;;;;;;;13.80;2.45;;;7.20;99.10;;;;;;5067377;28;20016;-86
2021/03/24 04:05:06;;;;;;;14.95;1.85;;;7.20;99.10;;;;;;5049780;28;20067;-86
2021/03/24 04:08:12;;;;;;;8.02;1.63;;;7.10;99.10;;;;;;5067228;28;20028;-82
2021/03/24 04:10:45;;;;;;;9.18;2.00;;;7.10;99.20;;;;;;5005846;28;20039;-86
2021/03/24 04:13:10;;;;;;;11.50;2.85;;;7.10;99.20;;;;;;5049468;28;20021;-87
2021/03/24 04:15:36;;;;;;;11.80;3.00;;;7.20;99.30;;;;;;5052077;28;20047;-83
2021/03/24 04:18:09;;;;;;;14.88;2.63;;;7.20;99.30;;;;;;5036434;28;20164;-82
2021/03/24 04:20:37;;;;;;;16.55;2.75;;;7.20;99.30;;;;;;5053468;28;20087;-83
2021/03/24 04:23:06;;;;;;;16.52;2.30;;;7.30;99.20;;;;;;5052817;28;20098;-82
2021/03/24 04:25:45;;;;;;;17.20;2.65;;;7.40;99.20;;;;;;5070835;28;20020;-84
2021/03/24 04:28:15;;;;;;;10.30;1.60;;;7.40;99.40;;;;;;5053161;28;20035;-84
2021/03/24 04:30:46;;;;;;;11.75;2.47;;;7.50;99.00;;;;;;5052775;28;20016;-83
2021/03/24 04:33:12;;;;;;;14.95;2.25;;;7.50;98.90;;;;;;5070572;28;20024;-84
2021/03/24 04:35:43;;;;;;;9.02;2.20;;;7.50;98.70;;;;;;5019691;28;20029;-82
2021/03/24 04:38:37;;;;;;;16.90;2.53;;;7.50;98.70;;;;;;5035968;28;20041;-83
2021/03/24 04:41:09;;;;;;;11.18;2.25;;;7.40;98.70;;;;;;5051849;28;20071;-86
2021/03/24 04:43:37;;;;;;;16.10;2.33;;;7.40;98.70;;;;;;5052468;28;20450;-84
2021/03/24 04:46:22;;;;;;;13.70;3.28;;;7.30;98.70;;;;;;5052280;28;20136;-83
2021/03/24 04:48:51;;;;;;;13.50;2.10;;;7.30;98.80;;;;;;5051941;28;20040;-86
2021/03/24 04:51:24;;;;;;;13.23;1.90;;;7.30;98.80;;;;;;5052106;28;20029;-84
2021/03/24 04:54:07;;;;;;;7.30;1.83;;;7.30;98.80;;;;;;5070291;28;20096;-85
2021/03/24 04:56:34;;;;;;;16.65;3.22;;;7.30;98.90;;;;;;5052197;28;20390;-86
2021/03/24 04:59:00;;;;;;;15.00;2.70;;;7.40;98.80;;;;;;5052364;28;20360;-84
2021/03/24 05:01:39;;;;;;;12.05;2.20;;;7.40;98.70;;;;;;5035580;28;20035;-86
2021/03/24 05:04:22;;;;;;;24.65;2.30;;;7.40;98.60;;;;;;5052016;28;20020;-86
2021/03/24 05:06:54;;;;;;;14.85;2.13;;;7.40;98.60;;;;;;5069794;28;20059;-85
2021/03/24 05:09:19;;;;;;;12.32;2.33;;;7.30;98.60;;;;;;5051648;28;20067;-85
2021/03/24 05:11:57;;;;;;;14.85;2.35;;;7.30;98.70;;;;;;5052109;28;20056;-83
2021/03/24 05:14:51;;;;;;;11.95;1.60;;;7.20;98.70;;;;;;5052007;28;20041;-84
2021/03/24 05:17:17;;;;;;;11.77;2.40;;;7.10;98.70;;;;;;5069910;28;20025;-83
2021/03/24 05:19:44;;;;;;;14.57;2.20;;;7.10;98.70;;;;;;5051918;28;20020;-84
2021/03/24 05:22:22;;;;;;;10.20;2.35;;;7.00;98.70;;;;;;5035304;28;20028;-85
2021/03/24 05:24:49;;;;;;;13.20;1.85;;;7.00;98.80;;;;;;5051920;28;20044;-83
2021/03/24 05:27:29;;;;;;;14.95;2.38;;;7.00;98.90;;;;;;5051120;28;20056;-85
2021/03/24 05:30:03;;;;;;;13.43;2.40;;;6.90;98.90;;;;;;5051611;28;20087;-82
2021/03/24 05:32:37;;;;;;;25.45;2.47;;;6.90;98.90;;;;;;5051856;28;20020;-82
2021/03/24 05:35:31;;;;;;;14.05;2.38;;;6.90;99.00;;;;;;5069416;28;20035;-85
2021/03/24 05:38:12;;;;;;;8.95;1.45;;;6.80;99.10;;;;;;5069424;28;20032;-82
2021/03/24 05:41:20;;;;;;;12.45;1.90;;;6.80;99.00;;;;;;5051363;28;20028;-82
2021/03/24 05:44:23;;;;;;;7.43;1.92;;;6.80;99.10;;;;;;5040445;28;20047;-83
2021/03/24 05:47:26;;;;;;;10.77;1.83;;;6.70;99.00;;;;;;5050886;28;20025;-85
2021/03/24 05:50:23;;;;;;;12.35;1.95;;;6.70;99.00;;;;;;5050848;28;20692;-83
2021/03/24 05:53:26;;;;;;;11.57;1.60;;;6.60;99.00;;;;;;5069334;28;20078;-82
2021/03/24 05:56:08;;;;;;;12.63;2.22;;;6.60;99.10;;;;;;5013247;28;20057;-85
2021/03/24 05:59:16;;;;;;;11.65;2.50;;;6.60;99.10;;;;;;5069169;28;20024;-85
2021/03/24 06:01:48;;;;;;;22.07;2.50;;;6.60;99.20;;;;;;5068931;28;20512;-86
2021/03/24 06:04:35;;;;;;;11.77;2.15;;;6.50;99.10;;;;;;5060738;28;20426;-85
2021/03/24 06:07:32;;;;;;;11.25;2.17;;;6.50;99.20;;;;;;5051021;28;20030;-85
2021/03/24 06:10:27;;;;;;;12.38;2.22;;;6.50;99.30;;;;;;5050948;28;20598;-85
2021/03/24 06:12:56;;;;;;;11.20;2.20;;;6.50;99.30;;;;;;5068555;28;20028;-82
2021/03/24 06:15:46;;;;;;;14.35;2.78;;;6.50;99.30;;;;;;5050771;28;20032;-84
2021/03/24 06:18:39;;;;;;;13.25;1.90;;;6.50;99.30;;;;;;5050419;28;20029;-82
2021/03/24 06:21:42;;;;;;;12.07;2.45;;;6.50;99.40;;;;;;5050630;28;20029;-87
2021/03/24 06:24:29;;;;;;;19.83;2.38;;;6.50;99.40;;;;;;5068700;28;20030;-84
2021/03/24 06:27:04;;;;;;;11.48;2.25;;;6.50;99.30;;;;;;5050389;28;20115;-83
2021/03/24 06:29:46;;;;;;;18.95;2.67;;;6.50;99.40;;;;;;5050469;28;20016;-81
2021/03/24 06:32:26;;;;;;;12.25;2.88;;;6.50;99.40;;;;;;5068485;28;20095;-84
2021/03/24 06:35:19;;;;;;;17.65;3.33;;;6.50;99.40;;;;;;5050486;28;20375;-83
2021/03/24 06:37:57;;;;;;;10.05;2.08;;;6.50;99.50;;;;;;5049732;28;20116;-83
2021/03/24 06:40:40;;;;;;;14.48;3.25;;;6.50;99.40;;;;;;5050456;28;20048;-82
2021/03/24 06:43:43;;;;;;;15.30;2.83;;;6.50;99.50;;;;;;5068243;28;20089;-82
2021/03/24 06:46:30;;;;;;;11.27;2.40;;;6.50;99.50;;;;;;5050175;28;20124;-84
2021/03/24 06:49:32;;;;;;;20.13;2.67;;;6.50;99.50;;;;;;5067846;28;20093;-85
2021/03/24 06:52:16;;;;;;;21.00;2.58;;;6.50;99.50;;;;;;5050206;28;20257;-84
2021/03/24 06:55:19;;;;;;;15.35;1.95;;;6.50;99.50;;;;;;5068162;28;20028;-83
2021/03/24 06:58:23;;;;;;;14.57;1.95;;;6.60;99.50;;;;;;5068248;28;20101;-84
2021/03/24 07:00:58;;;;;;;17.08;2.65;;;6.60;99.50;;;;;;5050200;28;20052;-85
2021/03/24 07:03:48;;;;;;;14.55;2.60;;;6.60;99.50;;;;;;5050216;28;20507;-86
2021/03/24 07:06:23;;;;;;;18.98;3.05;;;6.60;99.50;;;;;;5049956;28;20028;-85
2021/03/24 07:09:20;;;;;;;23.33;2.60;;;6.60;99.50;;;;;;5067878;28;20024;-85
2021/03/24 07:12:18;;;;;;;18.52;3.45;;;6.70;99.60;;;;;;5050184;28;20021;-84
2021/03/24 07:14:57;;;;;;;17.65;3.08;;;6.70;99.60;;;;;;5050038;28;20029;-82
2021/03/24 07:17:47;;;;;;;10.33;2.13;;;6.80;99.60;;;;;;5068189;28;20031;-85
2021/03/24 07:20:59;;;;;;;11.00;2.20;;;6.90;99.60;;;;;;5050086;28;20027;-83
2021/03/24 07:23:33;;;;;;;21.00;3.92;;;7.00;99.50;;;;;;4966892;28;20501;-82
2021/03/24 07:26:14;;;;;;;20.42;2.38;;;7.10;99.50;;;;;;5027772;28;20040;-85
2021/03/24 07:29:15;;;;;;;11.32;2.10;;;7.20;99.40;;;;;;5068382;28;20047;-82
2021/03/24 07:32:02;;;;;;;19.67;2.60;;;7.30;99.40;;;;;;5045778;28;20036;-83
2021/03/24 07:34:53;;;;;;;17.83;3.30;;;7.40;99.30;;;;;;5067845;28;20104;-83
2021/03/24 07:37:31;;;;;;;14.57;2.42;;;7.50;99.30;;;;;;5049686;28;20024;-83
2021/03/24 07:40:34;;;;;;;15.93;2.38;;;7.70;99.20;;;;;;5049757;28;20494;-80
2021/03/24 07:43:10;;;;;;;15.40;1.95;;;7.80;99.10;;;;;;5049550;28;20093;-82
2021/03/24 07:45:53;;;;;;;13.27;2.67;;;8.00;99.30;;;;;;5049629;28;20036;-85
2021/03/24 07:48:19;;;;;;;22.67;3.60;;;8.30;99.40;;;;;;5049441;28;20061;-84
2021/03/24 07:51:06;;;;;;;12.55;2.97;;;8.70;99.10;;;;;;5052679;28;20491;-85
2021/03/24 07:53:50;;;;;;;15.93;2.67;;;9.20;99.00;;;;;;5071331;28;20100;-83
2021/03/24 07:56:32;;;;;;;17.30;3.15;;;9.60;98.40;;;;;;5071569;28;20025;-85
2021/03/24 07:59:22;;;;;;;19.73;2.75;;;10.20;98.10;;;;;;5070921;28;20146;-81
2021/03/24 08:02:19;;;;;;;18.65;2.72;;;10.80;97.50;;;;;;5070826;28;20024;-82
2021/03/24 08:05:16;;;;;;;14.63;2.38;;;11.30;96.00;;;;;;5071251;28;20036;-86
2021/03/24 08:08:01;;;;;;;11.88;2.13;;;11.60;95.20;;;;;;5071345;28;20167;-84
2021/03/24 08:10:35;;;;;;;10.35;1.88;;;11.90;94.90;;;;;;5070795;28;20562;-86
2021/03/24 08:13:29;;;;;;;15.05;2.95;;;12.40;94.50;;;;;;5052941;28;20153;-83
2021/03/24 08:16:20;;;;;;;15.20;3.05;;;12.70;93.10;;;;;;5052935;28;20085;-88
2021/03/24 08:19:06;;;;;;;13.43;3.03;;;12.90;92.30;;;;;;5071152;28;20031;-86
2021/03/24 08:21:43;;;;;;;17.73;2.45;;;13.00;92.10;;;;;;5071180;28;20036;-85
2021/03/24 08:24:17;;;;;;;16.52;2.55;;;13.20;91.60;;;;;;5053301;28;20052;-84
2021/03/24 08:26:56;;;;;;;21.70;3.90;;;13.70;92.00;;;;;;5053336;28;20025;-86
2021/03/24 08:29:21;;;;;;;18.85;3.10;;;14.60;91.20;;;;;;5052411;28;20452;-84
2021/03/24 08:32:18;;;;;;;14.88;3.22;;;15.40;90.10;;;;;;5071049;28;20068;-85
2021/03/24 08:34:59;;;;;;;16.92;3.17;;;16.20;87.20;;;;;;5052873;28;20071;-84
2021/03/24 08:37:43;;;;;;;10.55;2.50;;;17.00;83.80;;;;;;5051990;28;20020;-76
2021/03/24 08:40:27;;;;;;;11.45;2.65;;;17.50;82.10;;;;;;5052513;28;20056;-85
2021/03/24 08:42:56;;;;;;;10.07;3.35;;;18.10;79.10;;;;;;5052296;28;20048;-83
2021/03/24 08:45:30;;;;;;;9.23;2.47;;;18.40;75.70;;;;;;5069888;28;20021;-85
2021/03/24 08:48:00;;;;;;;10.50;2.95;;;18.80;74.00;;;;;;5051128;28;20021;-85
2021/03/24 08:50:34;;;;;;;14.00;2.80;;;19.10;72.50;;;;;;5051558;28;20056;-83
2021/03/24 08:53:24;;;;;;;11.90;2.58;;;19.50;71.00;;;;;;5051977;28;20025;-86
2021/03/24 08:56:01;;;;;;;13.45;2.90;;;20.00;69.70;;;;;;5069385;28;20070;-85
2021/03/24 08:58:29;;;;;;;14.73;2.88;;;20.30;68.30;;;;;;5069291;28;20029;-85
2021/03/24 09:01:24;;;;;;;19.25;5.47;;;20.70;67.00;;;;;;5068365;28;20414;-83
2021/03/24 09:04:38;;;;;;;15.90;3.38;;;20.90;65.30;;;;;;5036899;28;20111;-82
2021/03/24 09:07:37;;;;;;;12.75;3.20;;;21.10;63.00;;;;;;4979669;28;20135;-84
2021/03/24 09:10:27;;;;;;;12.43;2.53;;;21.20;63.10;;;;;;5050784;28;20101;-85
2021/03/24 09:13:11;;;;;;;24.50;5.45;;;21.40;62.00;;;;;;5050885;28;20032;-85
2021/03/24 09:15:47;;;;;;;10.02;3.10;;;21.70;61.60;;;;;;5050898;28;20024;-83
2021/03/24 09:18:27;;;;;;;13.70;2.50;;;22.00;60.70;;;;;;5068420;28;20048;-83
2021/03/24 09:21:11;;;;;;;17.88;7.20;;;22.10;58.40;;;;;;5051197;28;20568;-84
2021/03/24 09:23:51;;;;;;;7.78;2.25;;;22.10;57.80;;;;;;5050362;28;20142;-82
2021/03/24 09:26:34;;;;;;;12.77;2.78;;;22.20;57.30;;;;;;5068943;28;20049;-83
2021/03/24 09:29:00;;;;;;;10.85;2.53;;;22.40;57.50;;;;;;5050656;28;20396;-82
2021/03/24 09:31:52;;;;;;;11.77;2.50;;;22.60;56.40;;;;;;5068605;28;20020;-83
2021/03/24 09:34:54;;;;;;;9.63;3.05;;;22.60;55.60;;;;;;5010370;28;20502;-87
2021/03/24 09:37:34;;;;;;;14.25;2.45;;;22.70;55.80;;;;;;5050774;28;20042;-84
2021/03/24 09:40:05;;;;;;;16.38;3.53;;;23.00;54.70;;;;;;5049648;28;20028;-85
2021/03/24 09:42:47;;;;;;;10.73;4.20;;;23.00;54.10;;;;;;5068698;28;20099;-81
2021/03/24 09:45:12;;;;;;;10.90;2.63;;;22.80;53.40;;;;;;5050762;28;20387;-83
2021/03/24 09:48:13;;;;;;;14.75;3.25;;;22.70;54.20;;;;;;5050991;28;20021;-82
2021/03/24 09:51:05;;;;;;;12.80;3.50;;;23.00;54.30;;;;;;5068995;28;20044;-85
2021/03/24 09:53:37;;;;;;;12.45;2.72;;;23.20;52.90;;;;;;5050445;28;20024;-83
2021/03/24 09:56:23;;;;;;;15.15;2.35;;;23.40;53.00;;;;;;5068175;28;20031;-80
2021/03/24 09:59:07;;;;;;;9.80;2.83;;;23.70;52.60;;;;;;5050950;28;20361;-83
2021/03/24 10:01:49;;;;;;;13.02;3.15;;;23.90;51.80;;;;;;5068198;28;20391;-83
2021/03/24 10:04:38;;;;;;;15.77;4.03;;;24.10;51.40;;;;;;5050566;28;20028;-83
2021/03/24 10:07:23;;;;;;;14.35;2.67;;;24.00;50.70;;;;;;5050628;28;20020;-85
2021/03/24 10:10:13;;;;;;;13.57;3.20;;;23.80;50.30;;;;;;5050053;28;20029;-83
2021/03/24 10:13:02;;;;;;;14.23;3.65;;;23.60;50.30;;;;;;5049939;28;20025;-83
2021/03/24 10:15:30;;;;;;;16.95;5.03;;;23.40;49.90;;;;;;5067481;28;20489;-83
2021/03/24 10:18:00;;;;;;;10.80;2.10;;;23.30;50.60;;;;;;5050154;28;20490;-83
2021/03/24 10:20:50;;;;;;;6.90;2.22;;;23.50;50.40;;;;;;5068687;28;20025;-85
2021/03/24 10:23:27;;;;;;;10.45;3.47;;;23.70;50.50;;;;;;5067732;28;20025;-85
2021/03/24 10:25:58;;;;;;;19.95;3.58;;;24.10;50.50;;;;;;5049807;28;20551;-86
2021/03/24 10:28:48;;;;;;;13.70;2.60;;;24.40;49.90;;;;;;5051058;28;20075;-84
2021/03/24 10:31:20;;;;;;;14.38;3.00;;;24.60;49.20;;;;;;5068257;28;20074;-85
2021/03/24 10:33:51;;;;;;;12.05;3.22;;;24.60;49.20;;;;;;5049762;28;20479;-84
2021/03/24 10:36:26;;;;;;;13.70;2.33;;;24.90;49.50;;;;;;5068152;28;20025;-83
2021/03/24 10:38:54;;;;;;;7.82;1.98;;;25.30;48.90;;;;;;5050190;28;20028;-83
2021/03/24 10:41:35;;;;;;;19.63;3.42;;;25.10;47.20;;;;;;5050821;28;20020;-84
2021/03/24 10:44:07;;;;;;;12.00;2.88;;;24.90;47.30;;;;;;5069072;28;20035;-83
2021/03/24 10:46:40;;;;;;;14.60;3.78;;;24.90;47.60;;;;;;5050773;28;20444;-87
2021/03/24 10:49:38;;;;;;;13.75;3.05;;;25.00;47.20;;;;;;5067586;28;20485;-82
2021/03/24 10:52:07;;;;;;;15.32;2.45;;;25.20;47.30;;;;;;5049471;28;20219;-85
2021/03/24 10:54:35;;;;;;;17.52;3.22;;;25.50;47.70;;;;;;5048505;28;20336;-85
2021/03/24 10:57:04;;;;;;;15.25;2.47;;;25.70;46.80;;;;;;5050312;28;20068;-84
2021/03/24 10:59:36;;;;;;;10.18;2.35;;;25.70;46.30;;;;;;5069264;28;20020;-86
2021/03/24 11:02:26;;;;;;;11.73;2.70;;;25.80;46.00;;;;;;5068436;28;20034;-82
2021/03/24 11:04:55;;;;;;;12.95;3.17;;;25.70;45.60;;;;;;5049975;28;20483;-83
2021/03/24 11:07:40;;;;;;;6.95;2.55;;;25.70;45.60;;;;;;5067439;28;20028;-87
2021/03/24 11:10:33;;;;;;;12.65;3.60;;;25.70;45.10;;;;;;5067796;28;20025;-84
2021/03/24 11:13:03;;;;;;;12.52;4.90;;;25.80;45.00;;;;;;5049483;28;20028;-86
2021/03/24 11:15:37;;;;;;;16.75;3.33;;;26.00;44.40;;;;;;5067397;28;20024;-86
2021/03/24 11:18:09;;;;;;;13.85;2.58;;;26.10;44.50;;;;;;5051171;28;20598;-83
2021/03/24 11:20:43;;;;;;;13.82;2.58;;;26.30;44.00;;;;;;5049463;28;20064;-85
2021/03/24 11:23:34;;;;;;;12.63;2.72;;;25.90;43.50;;;;;;5067985;28;20048;-83
2021/03/24 11:26:23;;;;;;;15.02;3.65;;;25.50;44.20;;;;;;5042441;28;20029;-83
2021/03/24 11:28:54;;;;;;;14.40;3.20;;;25.20;44.20;;;;;;5039191;28;20438;-86
2021/03/24 11:31:26;;;;;;;13.82;4.97;;;25.00;44.20;;;;;;5052882;28;20021;-84
2021/03/24 11:34:02;;;;;;;5.75;2.22;;;24.30;43.70;;;;;;5052847;28;20061;-87
2021/03/24 11:36:39;;;;;;;15.60;3.38;;;23.50;44.30;;;;;;5071043;28;20025;-84
2021/03/24 11:39:14;;;;;;;11.32;2.70;;;22.90;45.20;;;;;;5052956;28;20478;-86
2021/03/24 11:41:42;;;;;;;7.75;2.65;;;22.50;46.20;;;;;;5071118;28;20029;-83
2021/03/24 11:44:12;;;;;;;12.38;2.88;;;22.00;46.20;;;;;;5053608;28;20091;-85
2021/03/24 11:46:41;;;;;;;15.73;3.85;;;21.70;47.10;;;;;;5070847;28;20471;-87
2021/03/24 11:49:25;;;;;;;22.63;6.85;;;21.50;47.40;;;;;;5052463;28;20052;-84
2021/03/24 11:52:06;;;;;;;12.75;2.30;;;21.60;48.70;;;;;;5052839;28;20064;-84
2021/03/24 11:54:36;;;;;;;10.45;2.45;;;22.30;48.50;;;;;;5053443;28;20095;-84
2021/03/24 11:57:02;;;;;;;10.13;1.90;;;22.50;47.10;;;;;;5052648;28;20025;-83
2021/03/24 11:59:42;;;;;;;14.85;2.40;;;22.70;47.40;;;;;;5071137;28;20035;-83
2021/03/24 12:02:18;;;;;;;11.13;2.17;;;22.60;46.70;;;;;;5054079;28;20031;-86
2021/03/24 12:05:01;;;;;;;10.23;2.70;;;22.50;46.60;;;;;;5052813;28;20031;-84
2021/03/24 12:08:04;;;;;;;8.45;2.03;;;22.40;46.90;;;;;;5052416;28;20043;-84
2021/03/24 12:10:41;;;;;;;10.75;3.42;;;22.70;47.80;;;;;;5052161;28;20082;-84
2021/03/24 12:13:26;;;;;;;8.52;3.00;;;22.80;46.60;;;;;;5052775;28;20484;-84
2021/03/24 12:16:09;;;;;;;13.80;2.47;;;22.50;46.60;;;;;;5071357;28;20374;-82
2021/03/24 12:18:53;;;;;;;10.70;2.90;;;22.40;47.00;;;;;;5052269;28;20124;-83
2021/03/24 12:21:28;;;;;;;10.30;2.97;;;22.40;47.00;;;;;;5052268;28;20043;-86
2021/03/24 12:23:57;;;;;;;11.10;2.65;;;22.60;46.70;;;;;;5052212;28;20025;-87
2021/03/24 12:26:30;;;;;;;9.15;1.77;;;22.60;46.60;;;;;;5051644;28;20052;-84
2021/03/24 12:29:20;;;;;;;11.88;2.25;;;22.40;46.30;;;;;;5070123;28;20075;-85
2021/03/24 12:31:54;;;;;;;8.35;2.38;;;21.80;46.40;;;;;;5051761;28;20627;-82
2021/03/24 12:34:21;;;;;;;9.82;2.67;;;21.40;46.80;;;;;;5053235;28;20158;-85
2021/03/24 12:36:54;;;;;;;13.52;2.80;;;20.80;47.20;;;;;;5069664;28;20486;-83
2021/03/24 12:39:40;;;;;;;11.55;2.00;;;20.40;47.90;;;;;;5070076;28;20387;-84
2021/03/24 12:42:20;;;;;;;6.72;1.92;;;20.20;48.90;;;;;;5071624;28;20102;-83
2021/03/24 12:44:46;;;;;;;12.48;1.85;;;19.90;48.10;;;;;;5052717;28;20048;-83
2021/03/24 12:47:48;;;;;;;9.73;3.15;;;19.60;48.40;;;;;;5070936;28;20509;-85
2021/03/24 12:50:16;;;;;;;8.23;2.30;;;19.20;48.90;;;;;;5003992;28;20052;-84
2021/03/24 12:53:05;;;;;;;11.02;4.00;;;18.90;49.10;;;;;;5032504;28;20021;-83
2021/03/24 12:55:31;;;;;;;15.55;2.58;;;18.60;50.00;;;;;;5032321;28;20025;-86
2021/03/24 12:58:11;;;;;;;7.63;2.38;;;18.70;50.80;;;;;;5031922;28;20040;-86
2021/03/24 13:00:58;;;;;;;10.23;2.13;;;19.00;50.80;;;;;;5050273;28;20380;-82
2021/03/24 13:03:39;;;;;;;9.00;1.67;;;19.00;50.40;;;;;;5033197;28;20021;-84
2021/03/24 13:06:23;;;;;;;8.63;2.08;;;18.90;50.30;;;;;;5032516;28;20040;-85
2021/03/24 13:09:19;;;;;;;14.10;2.67;;;18.60;50.30;;;;;;5050073;28;20120;-83
2021/03/24 13:12:14;;;;;;;9.02;1.95;;;18.40;51.20;;;;;;5031950;28;20048;-85
2021/03/24 13:15:11;;;;;;;6.00;1.80;;;18.20;51.50;;;;;;5031397;28;20027;-85
2021/03/24 13:17:43;;;;;;;9.30;2.25;;;18.20;51.90;;;;;;5031930;28;20047;-84
2021/03/24 13:20:29;;;;;;;4.32;1.15;;;18.10;52.00;;;;;;5031544;28;20495;-86
2021/03/24 13:23:15;;;;;;;6.63;1.38;;;18.10;52.40;;;;;;5049593;28;20174;-82
2021/03/24 13:25:47;;;;;;;7.07;1.40;;;18.10;52.50;;;;;;5031518;28;20384;-85
2021/03/24 13:28:33;;;;;;;10.18;2.13;;;18.10;52.60;;;;;;5031105;28;20023;-84
2021/03/24 13:31:29;;;;;;;11.65;1.77;;;18.10;53.00;;;;;;5049626;28;20020;-68
2021/03/24 13:34:21;;;;;;;5.97;1.48;;;18.30;52.80;;;;;;5031987;28;20027;-85
2021/03/24 13:36:53;;;;;;;7.43;1.65;;;18.10;52.30;;;;;;5049275;28;20036;-83
2021/03/24 13:39:37;;;;;;;7.93;1.63;;;18.00;52.40;;;;;;5031442;28;20036;-87
2021/03/24 13:42:25;;;;;;;7.45;1.35;;;17.90;52.60;;;;;;5030916;28;20032;-86